createdAt,value
2024-02-29T00:02:17.457Z,6.40
2024-02-29T00:04:44.254Z,6.17
2024-02-29T00:07:10.925Z,6.47
2024-02-29T00:09:37.798Z,5.53
2024-02-29T00:12:05.302Z,5.63
2024-02-29T00:14:32.379Z,6.32
2024-02-29T00:17:01.598Z,5.77
2024-02-29T00:19:29.021Z,6.15
2024-02-29T00:21:55.749Z,6.22
2024-02-29T00:24:22.309Z,6.88
2024-02-29T00:26:49.161Z,6.25
2024-02-29T00:29:15.692Z,6.33
2024-02-29T00:31:46.068Z,6.60
2024-02-29T00:34:13.812Z,6.18
2024-02-29T00:36:40.894Z,6.57
2024-02-29T00:39:14.538Z,6.03
2024-02-29T00:41:41.887Z,6.23
2024-02-29T00:44:08.611Z,7.03
2024-02-29T00:46:38.568Z,6.05
2024-02-29T00:49:05.873Z,6.20
2024-02-29T00:51:32.752Z,6.03
2024-02-29T00:53:59.470Z,6.07
2024-02-29T00:56:26.409Z,6.20
2024-02-29T00:58:52.965Z,6.18
2024-02-29T01:01:19.672Z,5.88
2024-02-29T01:03:46.279Z,5.45
2024-02-29T01:06:12.898Z,5.90
2024-02-29T01:08:39.616Z,5.63
2024-02-29T01:11:06.654Z,5.40
2024-02-29T01:13:33.713Z,5.82
2024-02-29T01:16:00.325Z,5.97
2024-02-29T01:18:26.843Z,5.63
2024-02-29T01:20:53.941Z,6.10
2024-02-29T01:23:20.497Z,6.05
2024-02-29T01:25:47.099Z,6.18
2024-02-29T01:28:13.743Z,5.35
2024-02-29T01:30:40.338Z,5.63
2024-02-29T01:33:06.941Z,5.35
2024-02-29T01:35:33.673Z,5.30
2024-02-29T01:38:00.191Z,5.72
2024-02-29T01:40:26.718Z,5.50
2024-02-29T01:42:53.726Z,5.47
2024-02-29T01:45:20.342Z,6.07
2024-02-29T01:47:47.023Z,5.43
2024-02-29T01:50:16.719Z,5.45
2024-02-29T01:52:45.414Z,5.57
2024-02-29T01:55:12.809Z,5.83
2024-02-29T01:57:40.382Z,5.53
2024-02-29T02:00:09.532Z,5.55
2024-02-29T02:02:39.071Z,5.47
2024-02-29T02:05:09.250Z,6.28
2024-02-29T02:07:40.889Z,5.60
2024-02-29T02:10:09.459Z,5.53
2024-02-29T02:12:36.599Z,5.22
2024-02-29T02:15:04.364Z,5.63
2024-02-29T02:17:32.915Z,5.07
2024-02-29T02:20:01.328Z,4.80
2024-02-29T02:22:28.983Z,5.25
2024-02-29T02:24:55.548Z,5.72
2024-02-29T02:27:22.431Z,5.22
2024-02-29T02:29:48.974Z,5.57
2024-02-29T02:32:15.536Z,5.00
2024-02-29T02:34:42.058Z,5.32
2024-02-29T02:37:08.766Z,5.30
2024-02-29T02:39:35.391Z,5.07
2024-02-29T02:42:02.422Z,4.82
2024-02-29T02:44:29.276Z,5.33
2024-02-29T02:46:55.802Z,5.32
2024-02-29T02:49:24.457Z,5.00
2024-02-29T02:51:51.015Z,5.63
2024-02-29T02:54:17.572Z,5.15
2024-02-29T02:56:44.068Z,4.50
2024-02-29T02:59:10.620Z,4.60
2024-02-29T03:01:38.179Z,4.50
2024-02-29T03:04:08.040Z,4.63
2024-02-29T03:06:34.666Z,5.43
2024-02-29T03:09:01.250Z,5.20
2024-02-29T03:11:27.842Z,5.20
2024-02-29T03:13:54.635Z,5.43
2024-02-29T03:16:23.626Z,5.82
2024-02-29T03:18:50.592Z,4.90
2024-02-29T03:21:17.194Z,4.63
2024-02-29T03:23:43.779Z,5.18
2024-02-29T03:26:10.507Z,5.68
2024-02-29T03:28:37.062Z,4.70
2024-02-29T03:31:05.068Z,5.35
2024-02-29T03:33:31.958Z,5.73
2024-02-29T03:35:58.558Z,5.03
2024-02-29T03:38:25.095Z,5.30
2024-02-29T03:40:53.173Z,5.20
2024-02-29T03:43:19.875Z,5.63
2024-02-29T03:45:46.528Z,5.17
2024-02-29T03:48:13.170Z,5.47
2024-02-29T03:50:39.727Z,5.60
2024-02-29T03:53:06.364Z,5.55
2024-02-29T03:55:33.185Z,5.47
2024-02-29T03:57:59.951Z,5.93
2024-02-29T04:00:26.980Z,4.95
2024-02-29T04:02:53.512Z,5.78
2024-02-29T04:05:25.098Z,5.75
2024-02-29T04:07:54.495Z,5.68
2024-02-29T04:10:21.119Z,5.40
2024-02-29T04:12:47.675Z,5.97
2024-02-29T04:15:14.330Z,6.15
2024-02-29T04:17:40.865Z,5.68
2024-02-29T04:20:09.761Z,6.35
2024-02-29T04:22:36.537Z,5.43
2024-02-29T04:25:03.229Z,5.70
2024-02-29T04:27:29.775Z,6.60
2024-02-29T04:29:56.257Z,5.25
2024-02-29T04:32:22.822Z,6.50
2024-02-29T04:34:49.359Z,6.70
2024-02-29T04:37:16.074Z,6.15
2024-02-29T04:39:42.867Z,5.97
2024-02-29T04:42:09.468Z,6.35
2024-02-29T04:44:36.011Z,5.90
2024-02-29T04:47:02.612Z,5.77
2024-02-29T04:49:29.153Z,6.53
2024-02-29T04:51:55.921Z,6.15
2024-02-29T04:54:22.484Z,6.38
2024-02-29T04:56:49.230Z,6.45
2024-02-29T04:59:15.708Z,6.20
2024-02-29T05:01:42.305Z,5.90
2024-02-29T05:04:08.944Z,5.95
2024-02-29T05:06:35.553Z,6.20
2024-02-29T05:09:02.105Z,6.03
2024-02-29T05:11:28.758Z,5.97
2024-02-29T05:13:55.448Z,6.63
2024-02-29T05:16:22.204Z,6.00
2024-02-29T05:18:49.188Z,6.72
2024-02-29T05:21:15.732Z,6.38
2024-02-29T05:23:42.233Z,6.37
2024-02-29T05:26:09.166Z,6.15
2024-02-29T05:28:35.736Z,6.13
2024-02-29T05:31:04.520Z,6.05
2024-02-29T05:33:31.208Z,6.70
2024-02-29T05:35:57.851Z,6.03
2024-02-29T05:38:24.338Z,6.75
2024-02-29T05:40:51.938Z,5.97
2024-02-29T05:43:18.584Z,6.43
2024-02-29T05:45:45.130Z,6.07
2024-02-29T05:48:11.782Z,6.00
2024-02-29T05:50:38.342Z,6.60
2024-02-29T05:53:05.347Z,7.07
2024-02-29T05:55:34.554Z,6.00
2024-02-29T05:58:01.212Z,6.80
2024-02-29T06:00:27.779Z,6.60
2024-02-29T06:02:54.345Z,6.13
2024-02-29T06:05:21.278Z,5.93
2024-02-29T06:07:47.935Z,6.57
2024-02-29T06:10:14.710Z,6.35
2024-02-29T06:12:41.601Z,6.80
2024-02-29T06:15:11.203Z,6.53
2024-02-29T06:17:39.399Z,6.13
2024-02-29T06:20:11.443Z,6.90
2024-02-29T06:22:40.676Z,6.43
2024-02-29T06:25:09.967Z,6.20
2024-02-29T06:27:37.394Z,6.70
2024-02-29T06:30:05.411Z,5.85
2024-02-29T06:32:32.126Z,6.03
2024-02-29T06:34:58.751Z,7.03
2024-02-29T06:37:25.224Z,6.53
2024-02-29T06:39:51.841Z,5.90
2024-02-29T06:42:18.736Z,5.82
2024-02-29T06:44:45.421Z,6.50
2024-02-29T06:47:11.962Z,7.00
2024-02-29T06:49:38.545Z,5.90
2024-02-29T06:52:05.463Z,5.72
2024-02-29T06:54:32.008Z,6.20
2024-02-29T06:56:58.574Z,5.75
2024-02-29T06:59:26.576Z,5.88
2024-02-29T07:01:53.205Z,5.67
2024-02-29T07:04:19.945Z,6.28
2024-02-29T07:06:46.723Z,5.60
2024-02-29T07:09:13.276Z,5.50
2024-02-29T07:11:41.667Z,5.90
2024-02-29T07:14:08.347Z,5.67
2024-02-29T07:16:37.105Z,5.90
2024-02-29T07:19:05.166Z,5.57
2024-02-29T07:21:33.253Z,5.20
2024-02-29T07:23:59.870Z,5.78
2024-02-29T07:26:27.296Z,5.73
2024-02-29T07:28:53.826Z,5.97
2024-02-29T07:31:21.422Z,5.57
2024-02-29T07:33:48.130Z,4.90
2024-02-29T07:36:14.719Z,5.50
2024-02-29T07:38:41.292Z,5.27
2024-02-29T07:41:07.781Z,5.85
2024-02-29T07:43:34.741Z,5.40
2024-02-29T07:46:01.470Z,4.88
2024-02-29T07:48:30.615Z,5.30
2024-02-29T07:50:57.316Z,5.20
2024-02-29T07:53:23.894Z,4.78
2024-02-29T07:55:50.563Z,5.05
2024-02-29T07:58:17.217Z,4.82
2024-02-29T08:00:47.729Z,5.03
2024-02-29T08:03:14.237Z,4.90
2024-02-29T08:05:40.872Z,5.30
2024-02-29T08:08:09.059Z,5.00
2024-02-29T08:10:35.586Z,4.82
2024-02-29T08:13:02.314Z,5.18
2024-02-29T08:15:28.850Z,5.30
2024-02-29T08:17:55.510Z,5.72
2024-02-29T08:20:24.814Z,4.60
2024-02-29T08:22:55.147Z,4.80
2024-02-29T08:25:27.223Z,5.13
2024-02-29T08:27:54.388Z,5.20
2024-02-29T08:30:21.457Z,4.80
2024-02-29T08:32:49.879Z,4.90
2024-02-29T08:35:17.440Z,5.13
2024-02-29T08:37:45.211Z,5.15
2024-02-29T08:40:12.162Z,5.57
2024-02-29T08:42:39.301Z,5.05
2024-02-29T08:45:07.995Z,4.70
2024-02-29T08:47:34.542Z,5.68
2024-02-29T08:50:01.055Z,5.15
2024-02-29T08:52:27.652Z,4.87
2024-02-29T08:54:54.263Z,4.30
2024-02-29T08:57:20.911Z,5.00
2024-02-29T08:59:47.436Z,5.20
2024-02-29T09:02:14.172Z,4.53
2024-02-29T09:04:40.799Z,5.03
2024-02-29T09:07:07.276Z,5.78
2024-02-29T09:09:37.743Z,4.75
2024-02-29T09:12:07.523Z,5.07
2024-02-29T09:14:34.907Z,4.72
2024-02-29T09:17:01.760Z,4.87
2024-02-29T09:19:28.348Z,5.30
2024-02-29T09:21:55.022Z,4.90
2024-02-29T09:24:22.696Z,4.90
2024-02-29T09:26:50.060Z,5.00
2024-02-29T09:29:16.631Z,4.53
2024-02-29T09:31:44.075Z,4.82
2024-02-29T09:34:10.816Z,4.40
2024-02-29T09:36:38.458Z,4.97
2024-02-29T09:39:08.112Z,4.32
2024-02-29T09:41:58.486Z,4.00
2024-02-29T09:44:21.648Z,4.55
2024-02-29T09:46:51.635Z,4.15
2024-02-29T09:49:18.440Z,4.68
2024-02-29T09:51:45.872Z,4.28
2024-02-29T09:54:18.999Z,4.10
2024-02-29T09:56:49.028Z,4.68
2024-02-29T09:59:20.153Z,4.40
2024-02-29T10:01:50.525Z,4.72
2024-02-29T10:04:17.915Z,4.82
2024-02-29T10:06:44.765Z,4.87
2024-02-29T10:09:11.542Z,4.88
2024-02-29T10:11:42.216Z,5.00
2024-02-29T10:14:27.727Z,4.30
2024-02-29T10:16:56.098Z,4.53
2024-02-29T10:19:24.026Z,5.57
2024-02-29T10:21:52.341Z,4.80
2024-02-29T10:24:20.451Z,4.30
2024-02-29T10:26:47.466Z,4.72
2024-02-29T10:29:18.137Z,5.13
2024-02-29T10:31:44.931Z,4.67
2024-02-29T10:34:12.064Z,4.80
2024-02-29T10:36:39.752Z,4.45
2024-02-29T10:39:06.523Z,4.30
2024-02-29T10:41:33.785Z,4.28
2024-02-29T10:44:07.332Z,5.10
2024-02-29T10:46:36.921Z,4.90
2024-02-29T10:49:08.345Z,4.22
2024-02-29T10:51:44.196Z,4.95
2024-02-29T10:54:20.712Z,4.78
2024-02-29T10:56:49.327Z,4.27
2024-02-29T10:59:20.283Z,4.65
2024-02-29T11:01:48.590Z,4.60
2024-02-29T11:04:18.334Z,4.50
2024-02-29T11:06:47.812Z,4.68
2024-02-29T11:09:17.183Z,4.63
2024-02-29T11:11:46.398Z,4.65
2024-02-29T11:14:14.207Z,4.72
2024-02-29T11:16:44.888Z,4.45
2024-02-29T11:19:15.974Z,4.85
2024-02-29T11:21:42.952Z,5.03
2024-02-29T11:24:10.850Z,4.93
2024-02-29T11:26:38.420Z,4.88
2024-02-29T11:29:19.941Z,4.95
2024-02-29T11:31:56.684Z,5.05
2024-02-29T11:34:23.540Z,5.03
2024-02-29T11:36:51.606Z,4.13
2024-02-29T11:39:21.965Z,4.68
2024-02-29T11:42:02.073Z,5.05
2024-02-29T11:44:28.608Z,4.22
2024-02-29T11:46:55.470Z,4.80
2024-02-29T11:49:24.090Z,4.82
2024-02-29T11:51:52.204Z,4.60
2024-02-29T11:54:19.905Z,4.65
2024-02-29T11:56:48.329Z,4.75
2024-02-29T11:59:16.868Z,3.97
2024-02-29T12:01:45.187Z,4.82
2024-02-29T12:04:12.497Z,4.20
2024-02-29T12:06:41.052Z,3.88
2024-02-29T12:09:13.926Z,3.83
2024-02-29T12:11:43.006Z,3.93
2024-02-29T12:14:09.906Z,4.18
2024-02-29T12:16:37.810Z,3.40
2024-02-29T12:19:04.701Z,3.53
2024-02-29T12:21:31.398Z,3.30
2024-02-29T12:23:58.200Z,4.00
2024-02-29T12:26:26.265Z,3.40
2024-02-29T12:28:53.183Z,3.47
2024-02-29T12:31:20.279Z,3.22
2024-02-29T12:33:48.074Z,2.92
2024-02-29T12:36:20.092Z,3.27
2024-02-29T12:38:47.517Z,3.40
2024-02-29T12:41:16.898Z,3.60
2024-02-29T12:43:49.538Z,2.95
2024-02-29T12:46:17.616Z,3.15
2024-02-29T12:48:45.022Z,3.67
2024-02-29T12:51:11.762Z,3.58
2024-02-29T12:53:38.536Z,3.08
2024-02-29T12:56:06.304Z,3.42
2024-02-29T12:58:33.406Z,3.28
2024-02-29T13:01:01.000Z,3.90
2024-02-29T13:03:28.428Z,2.85
2024-02-29T13:05:55.773Z,3.53
2024-02-29T13:08:23.364Z,3.20
2024-02-29T13:10:50.818Z,3.33
2024-02-29T13:13:18.772Z,3.83
2024-02-29T13:15:45.658Z,3.15
2024-02-29T13:18:12.290Z,3.28
2024-02-29T13:20:38.895Z,3.78
2024-02-29T13:23:05.431Z,3.55
2024-02-29T13:25:32.151Z,3.33
2024-02-29T13:27:59.143Z,3.58
2024-02-29T13:30:25.835Z,3.45
2024-02-29T13:32:52.467Z,3.95
2024-02-29T13:35:19.098Z,3.60
2024-02-29T13:37:47.773Z,3.90
2024-02-29T13:40:14.515Z,3.83
2024-02-29T13:42:43.432Z,3.35
2024-02-29T13:45:11.679Z,4.07
2024-02-29T13:47:52.285Z,4.40
2024-02-29T13:50:21.194Z,4.20
2024-02-29T13:52:48.648Z,3.97
2024-02-29T13:55:15.619Z,3.92
2024-02-29T13:57:42.363Z,4.53
2024-02-29T14:00:09.958Z,4.38
2024-02-29T14:02:36.799Z,4.33
2024-02-29T14:05:04.590Z,4.40
2024-02-29T14:07:31.124Z,4.63
2024-02-29T14:09:57.814Z,4.60
2024-02-29T14:12:26.376Z,4.45
2024-02-29T14:14:53.171Z,4.30
2024-02-29T14:17:20.778Z,4.70
2024-02-29T14:19:47.353Z,4.70
2024-02-29T14:22:15.288Z,4.70
2024-02-29T14:24:42.192Z,4.78
2024-02-29T14:27:09.266Z,4.40
2024-02-29T14:29:35.955Z,4.95
2024-02-29T14:32:02.888Z,4.35
2024-02-29T14:34:29.786Z,4.68
2024-02-29T14:36:56.827Z,4.43
2024-02-29T14:39:23.452Z,4.50
2024-02-29T14:41:50.116Z,4.40
2024-02-29T14:44:17.077Z,4.18
2024-02-29T14:46:44.283Z,3.92
2024-02-29T14:49:11.582Z,4.03
2024-02-29T14:51:38.161Z,4.20
2024-02-29T14:54:05.319Z,4.45
2024-02-29T14:56:35.193Z,4.75
2024-02-29T14:59:01.834Z,4.50
2024-02-29T15:01:28.795Z,4.32
2024-02-29T15:03:55.575Z,4.90
2024-02-29T15:06:22.292Z,4.55
2024-02-29T15:08:49.026Z,4.05
2024-02-29T15:11:15.603Z,4.57
2024-02-29T15:13:42.321Z,4.22
2024-02-29T15:16:09.289Z,4.70
2024-02-29T15:18:36.516Z,4.53
2024-02-29T15:21:03.063Z,4.65
2024-02-29T15:23:29.573Z,3.92
2024-02-29T15:25:56.785Z,3.92
2024-02-29T15:28:25.792Z,3.77
2024-02-29T15:30:52.851Z,3.60
2024-02-29T15:33:21.488Z,3.30
2024-02-29T15:35:48.683Z,3.30
2024-02-29T15:38:18.398Z,4.20
2024-02-29T15:40:47.788Z,3.50
2024-02-29T15:43:15.492Z,4.00
2024-02-29T15:45:42.272Z,3.95
2024-02-29T15:48:09.173Z,4.40
2024-02-29T15:50:35.839Z,3.92
2024-02-29T15:53:02.483Z,4.30
2024-02-29T15:55:29.457Z,4.55
2024-02-29T15:57:56.254Z,4.72
2024-02-29T16:00:25.736Z,5.07
2024-02-29T16:02:52.541Z,4.90
2024-02-29T16:05:19.548Z,5.50
2024-02-29T16:07:46.128Z,5.15
2024-02-29T16:10:13.065Z,4.30
2024-02-29T16:12:40.634Z,5.28
2024-02-29T16:15:07.929Z,5.00
2024-02-29T16:17:36.278Z,4.87
2024-02-29T16:20:03.355Z,4.88
2024-02-29T16:22:29.918Z,4.70
2024-02-29T16:24:56.636Z,4.50
2024-02-29T16:27:23.409Z,4.50
2024-02-29T16:29:49.940Z,4.40
2024-02-29T16:32:16.486Z,4.28
2024-02-29T16:34:43.057Z,4.63
2024-02-29T16:37:09.603Z,4.30
2024-02-29T16:39:36.436Z,4.55
2024-02-29T16:42:03.051Z,4.27
2024-02-29T16:44:30.708Z,4.20
2024-02-29T16:46:57.450Z,4.47
2024-02-29T16:49:24.137Z,4.32
2024-02-29T16:51:51.208Z,5.03
2024-02-29T16:54:17.744Z,5.83
2024-02-29T16:56:46.115Z,5.40
2024-02-29T16:59:13.316Z,4.80
2024-02-29T17:01:41.674Z,5.03
2024-02-29T17:04:08.478Z,4.75
2024-02-29T17:06:36.500Z,4.97
2024-02-29T17:09:04.162Z,4.85
2024-02-29T17:11:30.822Z,4.30
2024-02-29T17:13:57.721Z,4.82
2024-02-29T17:18:50.706Z,4.67
2024-02-29T17:21:18.515Z,4.00
2024-02-29T17:23:45.037Z,4.03
2024-02-29T17:26:18.270Z,4.10
2024-02-29T17:28:45.213Z,3.53
2024-02-29T17:31:11.845Z,4.20
2024-02-29T17:33:39.555Z,4.13
2024-02-29T17:36:07.356Z,4.28
2024-02-29T17:38:34.612Z,4.35
2024-02-29T17:41:01.113Z,4.38
2024-02-29T17:43:27.913Z,4.23
2024-02-29T17:45:54.624Z,4.60
2024-02-29T17:48:21.173Z,3.90
2024-02-29T17:50:47.760Z,4.30
2024-02-29T17:53:14.313Z,3.88
2024-02-29T17:55:40.835Z,4.33
2024-02-29T17:58:07.385Z,3.78
2024-02-29T18:00:34.520Z,4.50
2024-02-29T18:03:01.986Z,3.97
2024-02-29T18:05:28.604Z,4.07
2024-02-29T18:07:59.142Z,4.27
2024-02-29T18:10:29.966Z,3.78
2024-02-29T18:12:58.573Z,4.10
2024-02-29T18:15:25.318Z,3.92
2024-02-29T18:17:52.101Z,3.50
2024-02-29T18:20:18.814Z,3.53
2024-02-29T18:22:45.598Z,3.63
2024-02-29T18:25:12.924Z,3.47
2024-02-29T18:27:39.528Z,3.80
2024-02-29T18:30:06.690Z,4.05
2024-02-29T18:32:33.659Z,3.73
2024-02-29T18:35:02.050Z,4.03
2024-02-29T18:37:28.709Z,3.92
2024-02-29T18:39:55.335Z,4.30
2024-02-29T18:42:21.928Z,3.90
2024-02-29T18:44:48.898Z,4.17
2024-02-29T18:47:15.686Z,4.05
2024-02-29T18:49:42.278Z,4.60
2024-02-29T18:52:09.953Z,4.38
2024-02-29T18:54:36.669Z,4.13
2024-02-29T18:57:03.271Z,4.40
2024-02-29T18:59:30.786Z,4.55
2024-02-29T19:01:57.597Z,4.68
2024-02-29T19:04:24.583Z,5.00
2024-02-29T19:06:51.491Z,4.90
2024-02-29T19:09:18.113Z,4.27
2024-02-29T19:11:45.203Z,4.65
2024-02-29T19:14:12.249Z,4.53
2024-02-29T19:16:41.388Z,4.88
2024-02-29T19:19:10.363Z,5.22
2024-02-29T19:21:40.096Z,4.67
2024-02-29T19:24:08.523Z,5.70
2024-02-29T19:26:35.673Z,5.97
2024-02-29T19:29:02.186Z,5.53
2024-02-29T19:31:28.685Z,5.07
2024-02-29T19:33:55.245Z,5.23
2024-02-29T19:36:24.401Z,4.88
2024-02-29T19:38:52.461Z,5.20
2024-02-29T19:41:19.141Z,5.10
2024-02-29T19:43:45.645Z,4.88
2024-02-29T19:46:12.312Z,4.67
2024-02-29T19:48:38.899Z,4.95
2024-02-29T19:51:07.947Z,4.93
2024-02-29T19:53:36.841Z,5.25
2024-02-29T19:56:03.607Z,5.00
2024-02-29T19:58:30.207Z,5.20
2024-02-29T20:01:01.822Z,5.00
2024-02-29T20:03:29.398Z,4.85
2024-02-29T20:05:57.290Z,5.00
2024-02-29T20:08:25.057Z,5.00
2024-02-29T20:10:51.700Z,4.80
2024-02-29T20:13:18.354Z,5.00
2024-02-29T20:15:44.953Z,5.10
2024-02-29T20:18:11.617Z,5.18
2024-02-29T20:20:38.502Z,5.13
2024-02-29T20:23:05.156Z,5.63
2024-02-29T20:25:31.861Z,5.22
2024-02-29T20:27:59.433Z,4.82
2024-02-29T20:30:28.060Z,5.10
2024-02-29T20:32:54.944Z,5.20
2024-02-29T20:35:21.674Z,5.40
2024-02-29T20:37:48.276Z,5.18
2024-02-29T20:40:15.089Z,4.65
2024-02-29T20:42:42.015Z,5.28
2024-02-29T20:45:08.908Z,5.32
2024-02-29T20:47:35.483Z,5.40
2024-02-29T20:50:02.915Z,4.70
2024-02-29T20:52:29.698Z,5.38
2024-02-29T20:54:56.515Z,5.82
2024-02-29T20:57:24.702Z,5.18
2024-02-29T20:59:51.511Z,5.33
2024-02-29T21:02:18.131Z,5.72
2024-02-29T21:04:45.359Z,5.10
2024-02-29T21:07:12.042Z,4.97
2024-02-29T21:09:38.697Z,5.00
2024-02-29T21:12:05.470Z,5.10
2024-02-29T21:14:32.037Z,5.13
2024-02-29T21:16:58.517Z,4.60
2024-02-29T21:19:25.222Z,4.80
2024-02-29T21:21:51.874Z,5.13
2024-02-29T21:24:18.480Z,5.17
2024-02-29T21:26:44.983Z,5.15
2024-02-29T21:29:11.488Z,5.00
2024-02-29T21:31:37.987Z,4.50
2024-02-29T21:34:05.320Z,5.03
2024-02-29T21:36:32.131Z,4.33
2024-02-29T21:38:58.585Z,4.53
2024-02-29T21:41:25.191Z,5.15
2024-02-29T21:43:52.095Z,4.72
2024-02-29T21:46:18.653Z,4.80
2024-02-29T21:48:48.263Z,4.17
2024-02-29T21:51:19.229Z,4.68
2024-02-29T21:53:46.428Z,4.63
2024-02-29T21:56:13.322Z,4.95
2024-02-29T21:58:41.852Z,4.60
2024-02-29T22:01:08.850Z,4.83
2024-02-29T22:03:35.795Z,5.25
2024-02-29T22:06:02.322Z,5.20
2024-02-29T22:08:28.966Z,5.15
2024-02-29T22:10:55.586Z,5.18
2024-02-29T22:13:22.233Z,5.00
2024-02-29T22:15:49.106Z,5.72
2024-02-29T22:18:16.152Z,5.32
2024-02-29T22:20:46.776Z,4.85
2024-02-29T22:23:14.324Z,5.00
2024-02-29T22:25:41.133Z,4.53
2024-02-29T22:28:07.753Z,4.90
2024-02-29T22:30:34.336Z,4.82
2024-02-29T22:33:00.973Z,4.57
2024-02-29T22:35:27.603Z,4.50
2024-02-29T22:37:57.166Z,4.73
2024-02-29T22:40:23.771Z,4.78
2024-02-29T22:42:50.383Z,5.55
2024-02-29T22:45:16.928Z,4.82
2024-02-29T22:47:44.583Z,4.50
2024-02-29T22:50:11.689Z,4.57
2024-02-29T22:52:38.416Z,4.35
2024-02-29T22:55:06.741Z,4.65
2024-02-29T22:57:34.456Z,4.80
2024-02-29T23:00:01.752Z,4.43
2024-02-29T23:02:29.094Z,4.20
2024-02-29T23:04:55.761Z,4.10
2024-02-29T23:07:22.719Z,4.07
2024-02-29T23:09:49.816Z,4.63
2024-02-29T23:12:17.267Z,4.47
2024-02-29T23:14:45.173Z,3.80
2024-02-29T23:17:11.811Z,3.90
2024-02-29T23:19:38.263Z,4.28
2024-02-29T23:22:04.850Z,4.10
2024-02-29T23:24:31.529Z,4.57
2024-02-29T23:26:58.004Z,3.63
2024-02-29T23:29:24.534Z,3.70
2024-02-29T23:31:51.129Z,4.40
2024-02-29T23:34:19.007Z,4.10
2024-02-29T23:36:48.567Z,3.72
2024-02-29T23:39:15.195Z,3.97
2024-02-29T23:41:41.765Z,3.65
2024-02-29T23:44:09.401Z,3.13
2024-02-29T23:46:35.935Z,3.80
2024-02-29T23:49:02.686Z,4.25
2024-02-29T23:51:29.304Z,3.20
2024-02-29T23:53:55.839Z,3.38
2024-02-29T23:56:22.313Z,3.17
2024-02-29T23:58:48.859Z,3.95
